Kalenakliyat 2 — TCBA7 — position and weather

sailwx.info

Track history (hours):
 
Tides and Currents Weather Stations Pressure Air Temp Water Temp Dewpoint Dewpoint Depression Visibility Wind Speed Wind Dir Waves Ship Positions

Kalenakliyat 2

Last reported at 2015-Jul-28 17:32 UTC. Time now 2015-Aug-03 08:40 UTC.
Position N 42°03' E 033°49'.

Length 72 m; draft 4.3 m.

Type: Cargo ship. MMSI: 271002023.

Date/timePositionNaut miles runAvg speedWind from/ knotsBaromVisibWave heightAir tempDewpointWater temp
2015-Jul-28 17:32N 42°03' E 033°49'12 9.1
2015-Jul-28 16:10N 42°03' E 034°05'6 9.4
2015-Jul-28 15:34N 42°04' E 034°13'9 9.1
2015-Jul-28 14:34N 42°05' E 034°25'10 9.8
2015-Jul-28 13:33N 42°05' E 034°39'1010.1
2015-Jul-28 12:33N 42°06' E 034°52'9 9.5
2015-Jul-28 11:33N 42°05' E 035°05'9 8.6
2015-Jul-28 10:34N 42°02' E 035°16'9 8.8
2015-Jul-28 09:33N 41°59' E 035°27'11 8.9
2015-Jul-28 08:20N 41°55' E 035°41'7 8.7
2015-Jul-28 07:29N 41°53' E 035°50'  
2015-Jul-23 22:05N 42°07' E 034°53'14 7.9
2015-Jul-23 20:20N 42°03' E 034°35'7 7.0
2015-Jul-23 19:17N 42°02' E 034°25'12 7.0
2015-Jul-23 17:33N 42°01' E 034°09'240 7.3
2015-Jul-22 08:33N 40°59' E 029°00'7 7.4
2015-Jul-22 07:33N 40°54' E 029°08'3 2.7
2015-Jul-22 06:33N 40°53' E 029°11'  
Track history (hours):
 
Tides and Currents Weather Stations Pressure Air Temp Water Temp Dewpoint Dewpoint Depression Visibility Wind Speed Wind Dir Waves Ship Positions

Kalenakliyat 2

Last reported at 2015-Jul-28 17:32 UTC. Time now 2015-Aug-03 08:40 UTC.
Position N 42°03' E 033°49'.

Length 72 m; draft 4.3 m.

Type: Cargo ship. MMSI: 271002023.

Date/timePositionNaut miles runAvg speedWind from/ knotsBaromVisibWave heightAir tempDewpointWater temp
2015-Jul-28 17:32N 42°03' E 033°49'12 9.1
2015-Jul-28 16:10N 42°03' E 034°05'6 9.4
2015-Jul-28 15:34N 42°04' E 034°13'9 9.1
2015-Jul-28 14:34N 42°05' E 034°25'10 9.8
2015-Jul-28 13:33N 42°05' E 034°39'1010.1
2015-Jul-28 12:33N 42°06' E 034°52'9 9.5
2015-Jul-28 11:33N 42°05' E 035°05'9 8.6
2015-Jul-28 10:34N 42°02' E 035°16'9 8.8
2015-Jul-28 09:33N 41°59' E 035°27'11 8.9
2015-Jul-28 08:20N 41°55' E 035°41'7 8.7
2015-Jul-28 07:29N 41°53' E 035°50'  
2015-Jul-23 22:05N 42°07' E 034°53'14 7.9
2015-Jul-23 20:20N 42°03' E 034°35'7 7.0
2015-Jul-23 19:17N 42°02' E 034°25'12 7.0
2015-Jul-23 17:33N 42°01' E 034°09'240 7.3
2015-Jul-22 08:33N 40°59' E 029°00'7 7.4
2015-Jul-22 07:33N 40°54' E 029°08'3 2.7
2015-Jul-22 06:33N 40°53' E 029°11'  

Dump ship's entire track history